Time;durP1;ratioP1;P1;durP2;ratioP2;P2;SDS_P1;SDS_P2;PMS_P1;PMS_P2;Temp;Humidity;BMP_temperature;BMP_pressure;BME280_temperature;BME280_humidity;BME280_pressure;Samples;Min_cycle;Max_cycle;Signal;HPM_P1;HPM_P2
2022/12/01 00:01:48;;;;;;;76.43;47.83;;;;;;;10.02;66.98;102510.19;4938132;28;119560;-77
2022/12/01 00:04:15;;;;;;;76.53;48.55;;;;;;;9.92;66.96;102500.06;4936618;28;119504;-78
2022/12/01 00:06:41;;;;;;;74.50;46.78;;;;;;;10.00;66.93;102506.28;4941424;28;119460;-78
2022/12/01 00:11:52;;;;;;;75.97;48.28;;;;;;;9.99;66.49;102504.72;4949302;28;120317;-77
2022/12/01 00:14:17;;;;;;;82.55;51.20;;;;;;;9.99;66.29;102496.50;4944346;28;119539;-78
2022/12/01 00:16:44;;;;;;;78.07;49.00;;;;;;;9.95;66.08;102498.50;4943823;28;119338;-78
2022/12/01 00:19:09;;;;;;;77.90;50.38;;;;;;;9.97;66.44;102498.88;4939106;28;119277;-77
2022/12/01 00:21:35;;;;;;;78.60;49.10;;;;;;;9.97;66.57;102507.88;4935207;28;119272;-78
2022/12/01 00:24:01;;;;;;;75.85;50.20;;;;;;;9.95;66.36;102507.50;4945850;28;119978;-78
2022/12/01 00:26:27;;;;;;;77.25;48.33;;;;;;;9.93;65.94;102500.81;4948344;28;119526;-77
2022/12/01 00:28:55;;;;;;;82.63;51.88;;;;;;;9.89;66.55;102502.81;4939110;28;119629;-77
2022/12/01 00:31:22;;;;;;;79.88;50.88;;;;;;;9.96;66.48;102511.03;4942682;28;122536;-78
2022/12/01 00:33:48;;;;;;;73.13;48.97;;;;;;;9.95;66.66;102503.97;4936088;28;119610;-77
2022/12/01 00:36:14;;;;;;;75.07;49.50;;;;;;;10.01;66.63;102503.13;4946980;28;119215;-77
2022/12/01 00:38:40;;;;;;;84.00;52.90;;;;;;;9.98;66.56;102506.69;4952515;28;120250;-78
2022/12/01 00:41:06;;;;;;;80.55;51.63;;;;;;;10.03;66.60;102510.97;4942218;28;119320;-78
2022/12/01 00:43:32;;;;;;;84.20;52.67;;;;;;;10.01;66.43;102507.84;4940618;28;119290;-78
2022/12/01 00:45:58;;;;;;;86.78;53.17;;;;;;;10.04;66.13;102515.25;4944418;28;119293;-77
2022/12/01 00:48:23;;;;;;;86.40;54.63;;;;;;;10.01;66.23;102516.06;4945286;28;119369;-77
2022/12/01 00:50:51;;;;;;;85.13;53.45;;;;;;;9.95;65.86;102521.19;4948737;28;120921;-77
2022/12/01 00:53:17;;;;;;;81.47;53.00;;;;;;;9.83;65.94;102505.22;4939340;28;119699;-78
2022/12/01 00:55:42;;;;;;;85.15;53.58;;;;;;;9.81;66.01;102511.09;4943591;28;119473;-77
2022/12/01 00:58:09;;;;;;;87.70;53.33;;;;;;;9.72;66.26;102508.03;4937892;28;120352;-78
2022/12/01 01:00:37;;;;;;;84.55;53.72;;;;;;;9.69;65.74;102505.28;4950058;28;119345;-78
2022/12/01 01:03:05;;;;;;;89.25;56.08;;;;;;;9.66;66.31;102498.63;4948101;28;119707;-78
2022/12/01 01:05:38;;;;;;;89.00;56.17;;;;;;;9.71;66.03;102511.16;4937538;28;119731;-79
2022/12/01 01:08:12;;;;;;;90.10;55.72;;;;;;;9.69;66.50;102508.78;4937587;28;119798;-77
2022/12/01 01:10:42;;;;;;;92.20;57.72;;;;;;;9.68;66.48;102511.94;4946736;28;120691;-78
2022/12/01 01:13:09;;;;;;;96.05;58.20;;;;;;;9.66;66.42;102515.06;4946941;28;119738;-78
2022/12/01 01:15:42;;;;;;;95.60;59.55;;;;;;;9.56;66.45;102502.22;4951308;28;119670;-78
2022/12/01 01:18:10;;;;;;;95.25;58.65;;;;;;;9.60;66.50;102518.63;4950797;28;120008;-77
2022/12/01 01:20:36;;;;;;;93.13;57.03;;;;;;;9.60;66.17;102524.91;4931012;28;119648;-77
2022/12/01 01:23:02;;;;;;;94.68;58.20;;;;;;;9.60;66.86;102529.59;4942429;28;119339;-78
2022/12/01 01:25:28;;;;;;;91.22;57.40;;;;;;;9.56;66.43;102521.41;4952370;28;119767;-78
2022/12/01 01:27:53;;;;;;;96.53;59.63;;;;;;;9.53;66.71;102524.94;4939368;28;119758;-78
2022/12/01 01:30:19;;;;;;;96.22;60.05;;;;;;;9.57;66.64;102535.88;4936040;28;120382;-78
2022/12/01 01:32:45;;;;;;;95.85;60.28;;;;;;;9.56;67.10;102526.09;4948675;28;119502;-77
2022/12/01 01:35:11;;;;;;;96.68;59.42;;;;;;;9.55;67.05;102519.84;4951808;28;119264;-77
2022/12/01 01:37:36;;;;;;;98.72;59.95;;;;;;;9.57;66.94;102524.91;4947437;28;120647;-78
2022/12/01 01:40:02;;;;;;;95.00;60.28;;;;;;;9.60;67.14;102530.38;4940507;28;119843;-78
2022/12/01 01:42:29;;;;;;;98.85;61.05;;;;;;;9.59;66.64;102537.03;4949451;28;119610;-77
2022/12/01 01:44:56;;;;;;;95.90;59.38;;;;;;;9.54;66.74;102532.75;4940639;28;120499;-77
2022/12/01 01:47:25;;;;;;;93.93;59.45;;;;;;;9.53;67.08;102538.63;4948031;28;119830;-76
2022/12/01 01:49:53;;;;;;;96.18;60.42;;;;;;;9.46;66.81;102531.25;4945847;28;122420;-76
2022/12/01 01:52:20;;;;;;;97.22;60.60;;;;;;;9.50;67.01;102537.47;4935129;28;119291;-78
2022/12/01 01:54:49;;;;;;;98.53;61.17;;;;;;;9.44;67.08;102528.09;4932049;28;119427;-77
2022/12/01 01:57:23;;;;;;;102.25;60.55;;;;;;;9.50;67.31;102532.00;4940959;28;119395;-78
2022/12/01 01:59:58;;;;;;;95.63;59.97;;;;;;;9.48;67.15;102545.31;4942897;28;119735;-77
2022/12/01 02:02:24;;;;;;;95.68;58.63;;;;;;;9.47;67.30;102538.28;4932476;28;119716;-77
2022/12/01 02:04:55;;;;;;;104.95;61.83;;;;;;;9.52;67.44;102528.84;4939285;28;119309;-78
2022/12/01 02:07:21;;;;;;;94.43;58.40;;;;;;;9.57;67.38;102528.44;4941284;28;119645;-77
2022/12/01 02:09:47;;;;;;;103.75;61.10;;;;;;;9.64;67.61;102533.88;4949660;28;119910;-78
2022/12/01 02:12:30;;;;;;;93.53;59.83;;;;;;;9.64;67.55;102517.44;4948433;28;119308;-78
2022/12/01 02:15:27;;;;;;;97.38;60.42;;;;;;;9.69;67.28;102525.25;4931925;28;119479;-76
2022/12/01 02:17:53;;;;;;;98.22;60.45;;;;;;;9.71;67.40;102528.38;4933894;28;119466;-76
2022/12/01 02:20:59;;;;;;;96.45;59.50;;;;;;;9.67;67.35;102524.06;4935129;28;119864;-77
2022/12/01 02:24:06;;;;;;;91.70;56.40;;;;;;;9.74;67.32;102532.28;4934667;28;119451;-77
2022/12/01 02:26:44;;;;;;;97.03;58.25;;;;;;;9.76;67.18;102538.16;4929385;28;122067;-77
2022/12/01 02:29:37;;;;;;;92.23;57.67;;;;;;;9.78;67.22;102535.78;4949417;28;119536;-78
2022/12/01 02:32:22;;;;;;;95.20;58.15;;;;;;;9.79;66.66;102531.84;4940391;28;119426;-77
2022/12/01 02:35:06;;;;;;;96.05;57.35;;;;;;;9.78;67.16;102533.81;4945580;28;119323;-77
2022/12/01 02:37:56;;;;;;;93.18;56.03;;;;;;;9.81;67.60;102532.25;4937439;28;119304;-77
2022/12/01 02:40:39;;;;;;;88.65;55.10;;;;;;;9.78;66.93;102522.84;4941468;28;120579;-76
2022/12/01 02:43:30;;;;;;;89.35;55.45;;;;;;;9.84;66.93;102532.22;4940758;28;119930;-77
2022/12/01 02:46:29;;;;;;;92.55;54.80;;;;;;;9.87;66.98;102529.84;4923448;28;120458;-76
2022/12/01 02:49:00;;;;;;;89.70;54.67;;;;;;;9.83;66.73;102519.69;4934948;28;119569;-77
2022/12/01 02:51:31;;;;;;;87.78;54.42;;;;;;;9.86;67.08;102529.06;4932615;28;119249;-78
2022/12/01 02:53:58;;;;;;;92.60;55.60;;;;;;;9.84;66.94;102529.47;4951759;28;119239;-77
2022/12/01 02:56:25;;;;;;;85.13;52.75;;;;;;;9.85;66.37;102533.78;4939716;28;119771;-77
2022/12/01 02:58:50;;;;;;;80.00;50.75;;;;;;;9.84;67.14;102540.44;4941142;28;119584;-77
2022/12/01 03:01:51;;;;;;;87.22;53.28;;;;;;;9.80;66.41;102536.94;4920731;28;121661;-78
2022/12/01 03:04:31;;;;;;;80.63;51.28;;;;;;;9.82;66.62;102534.56;4932083;28;119218;-77
2022/12/01 03:07:25;;;;;;;82.53;49.38;;;;;;;9.85;66.55;102535.72;4943198;28;119554;-77
2022/12/01 03:10:28;;;;;;;79.07;49.40;;;;;;;9.84;66.80;102540.44;4929852;28;119451;-77
2022/12/01 03:13:22;;;;;;;80.72;49.85;;;;;;;9.81;66.88;102535.75;4939278;28;119612;-77
2022/12/01 03:16:10;;;;;;;76.75;46.83;;;;;;;9.79;66.89;102534.59;4945688;28;119780;-78
2022/12/01 03:18:55;;;;;;;68.72;44.65;;;;;;;9.75;66.38;102533.84;4946559;28;120606;-77
2022/12/01 03:21:20;;;;;;;70.03;44.60;;;;;;;9.74;66.65;102533.06;4931635;28;119302;-78
2022/12/01 03:23:53;;;;;;;69.28;44.08;;;;;;;9.76;67.04;102530.69;4942596;28;119400;-78
2022/12/01 03:26:23;;;;;;;67.13;42.28;;;;;;;9.75;66.49;102526.41;4946341;28;119391;-78
2022/12/01 03:28:53;;;;;;;66.28;43.05;;;;;;;9.80;66.63;102530.69;4937111;28;120154;-78
2022/12/01 03:31:25;;;;;;;69.22;42.00;;;;;;;9.82;66.89;102533.78;4936285;28;119493;-77
2022/12/01 03:33:58;;;;;;;62.90;40.25;;;;;;;9.83;66.91;102532.63;4930881;28;119863;-78
2022/12/01 03:36:34;;;;;;;67.05;42.58;;;;;;;9.85;66.68;102533.00;4932190;28;119441;-76
2022/12/01 03:39:06;;;;;;;61.88;41.42;;;;;;;9.80;67.18;102522.47;4948239;28;119988;-77
2022/12/01 03:41:41;;;;;;;61.65;40.03;;;;;;;9.85;66.55;102522.81;4941022;28;119667;-77
2022/12/01 03:44:15;;;;;;;64.25;41.10;;;;;;;9.88;66.96;102521.22;4939537;28;120312;-77
2022/12/01 03:46:49;;;;;;;65.75;41.40;;;;;;;9.82;66.38;102515.38;4941217;28;119823;-77
2022/12/01 03:49:17;;;;;;;63.85;40.70;;;;;;;9.87;66.57;102522.41;4946465;28;119252;-77
2022/12/01 03:52:02;;;;;;;65.03;40.67;;;;;;;9.90;66.70;102529.03;4931485;28;119525;-78
2022/12/01 03:54:37;;;;;;;63.95;40.03;;;;;;;9.88;66.70;102529.44;4926007;28;119422;-77
2022/12/01 03:57:07;;;;;;;58.72;38.58;;;;;;;9.88;66.50;102537.69;4930278;28;119557;-77
2022/12/01 03:59:36;;;;;;;60.70;39.08;;;;;;;9.85;66.33;102528.28;4946075;28;119505;-76
2022/12/01 04:02:02;;;;;;;57.53;37.60;;;;;;;9.86;66.21;102529.06;4947932;28;119408;-77
2022/12/01 04:04:28;;;;;;;58.22;38.30;;;;;;;9.80;66.11;102539.69;4950459;28;119733;-78
2022/12/01 04:06:53;;;;;;;59.53;38.05;;;;;;;9.70;66.01;102543.28;4941833;28;119684;-78
2022/12/01 04:09:19;;;;;;;61.65;39.42;;;;;;;9.65;66.03;102538.19;4938390;28;120865;-77
2022/12/01 04:14:29;;;;;;;58.97;37.13;;;;;;;9.56;66.49;102543.31;4948925;28;119588;-77
2022/12/01 04:16:55;;;;;;;60.38;37.90;;;;;;;9.51;66.25;102543.75;4941015;28;119490;-77
2022/12/01 04:19:20;;;;;;;61.15;37.92;;;;;;;9.53;66.83;102546.84;4952616;28;119880;-77
2022/12/01 04:21:46;;;;;;;59.20;37.55;;;;;;;9.50;66.56;102542.19;4935512;28;119236;-77
2022/12/01 04:24:12;;;;;;;60.08;37.63;;;;;;;9.51;66.49;102552.72;4944414;28;119608;-77
2022/12/01 04:26:38;;;;;;;57.35;37.20;;;;;;;9.45;66.83;102548.81;4936831;28;119516;-76
2022/12/01 04:29:06;;;;;;;58.88;37.03;;;;;;;9.45;67.08;102554.31;4945581;28;119387;-77
2022/12/01 04:31:32;;;;;;;59.75;37.22;;;;;;;9.46;67.02;102555.88;4945404;28;120052;-78
2022/12/01 04:33:59;;;;;;;57.28;36.97;;;;;;;9.46;66.83;102555.88;4947456;28;119854;-78
2022/12/01 04:36:26;;;;;;;57.17;36.65;;;;;;;9.44;66.73;102541.00;4934116;28;119581;-77
2022/12/01 04:38:51;;;;;;;56.13;36.78;;;;;;;9.43;67.06;102536.69;4916444;28;121046;-77
2022/12/01 04:41:17;;;;;;;60.63;37.78;;;;;;;9.55;66.71;102549.97;4943904;28;119194;-77
2022/12/01 04:43:43;;;;;;;58.63;37.35;;;;;;;9.56;66.84;102554.28;4941254;28;119651;-77
2022/12/01 04:46:09;;;;;;;56.60;36.60;;;;;;;9.52;66.76;102548.81;4952514;28;119875;-77
2022/12/01 04:48:36;;;;;;;53.95;34.83;;;;;;;9.54;66.82;102565.63;4933558;28;119418;-77
2022/12/01 04:51:03;;;;;;;52.05;33.78;;;;;;;9.47;67.04;102559.41;4936800;28;119500;-77
2022/12/01 04:53:29;;;;;;;53.38;33.00;;;;;;;9.49;66.56;102568.78;4927732;28;119366;-78
2022/12/01 04:55:55;;;;;;;52.10;33.90;;;;;;;9.48;67.43;102560.97;4941961;28;119846;-77
2022/12/01 04:58:21;;;;;;;48.80;32.78;;;;;;;9.50;67.47;102572.31;4949277;28;121920;-77
2022/12/01 05:00:46;;;;;;;50.55;33.08;;;;;;;9.50;67.18;102567.63;4948727;28;119789;-77
2022/12/01 05:03:12;;;;;;;45.92;30.80;;;;;;;9.52;67.77;102569.94;4947014;28;119684;-78
2022/12/01 05:05:38;;;;;;;44.55;30.42;;;;;;;9.52;66.88;102570.72;4939117;28;119328;-78
2022/12/01 05:08:04;;;;;;;43.35;30.27;;;;;;;9.48;66.71;102575.44;4937988;28;119443;-79
2022/12/01 05:10:29;;;;;;;45.78;29.27;;;;;;;9.42;67.36;102565.28;4947297;28;119618;-77
2022/12/01 05:12:57;;;;;;;45.60;29.50;;;;;;;9.44;67.29;102571.91;4945651;28;119340;-78
2022/12/01 05:15:23;;;;;;;43.58;29.45;;;;;;;9.47;67.10;102568.41;4946095;28;119754;-79
2022/12/01 05:17:49;;;;;;;42.58;28.55;;;;;;;9.48;67.04;102558.22;4947164;28;119969;-78
2022/12/01 05:23:04;;;;;;;43.20;29.42;;;;;;;9.46;67.13;102571.53;4945895;28;119726;-78
2022/12/01 05:25:30;;;;;;;43.13;29.08;;;;;;;9.47;67.17;102578.59;4938034;28;120497;-77
2022/12/01 05:27:56;;;;;;;44.00;28.17;;;;;;;9.39;67.33;102571.56;4935635;28;121121;-77
2022/12/01 05:30:22;;;;;;;42.63;28.45;;;;;;;9.44;67.26;102573.88;4946908;28;119443;-78
2022/12/01 05:32:48;;;;;;;46.08;29.30;;;;;;;9.41;67.41;102574.66;4941975;28;119629;-77
2022/12/01 05:35:14;;;;;;;44.60;28.83;;;;;;;9.41;67.16;102574.66;4936767;28;119634;-78
2022/12/01 05:37:39;;;;;;;45.50;30.30;;;;;;;9.43;67.34;102581.31;4936176;28;119803;-78
2022/12/01 05:40:06;;;;;;;45.92;30.33;;;;;;;9.40;67.59;102568.41;4931057;28;119610;-78
2022/12/01 05:42:31;;;;;;;44.83;29.75;;;;;;;9.47;66.75;102589.53;4940874;28;119432;-79
2022/12/01 05:44:57;;;;;;;47.80;30.48;;;;;;;9.46;66.88;102580.53;4944722;28;119961;-78
2022/12/01 05:47:23;;;;;;;47.83;30.70;;;;;;;9.43;67.16;102583.28;4947830;28;119977;-77
2022/12/01 05:49:49;;;;;;;48.92;31.83;;;;;;;9.43;67.39;102580.53;4943671;28;119673;-77
2022/12/01 05:52:14;;;;;;;50.50;32.70;;;;;;;9.46;67.57;102580.53;4941445;28;119300;-78
2022/12/01 05:54:40;;;;;;;50.38;32.70;;;;;;;9.41;67.21;102575.44;4940655;28;119209;-78
2022/12/01 05:57:06;;;;;;;52.25;33.47;;;;;;;9.36;67.19;102578.59;4941280;28;120289;-78
2022/12/01 05:59:32;;;;;;;53.78;34.08;;;;;;;9.38;67.30;102583.69;4940897;28;119316;-78
2022/12/01 06:01:57;;;;;;;52.75;34.90;;;;;;;9.39;66.88;102590.72;4939354;28;119326;-78
2022/12/01 06:04:23;;;;;;;58.08;35.65;;;;;;;9.41;67.62;102583.66;4950567;28;119572;-77
2022/12/01 06:06:49;;;;;;;57.15;37.00;;;;;;;9.46;67.32;102587.94;4944347;28;119561;-77
2022/12/01 06:09:15;;;;;;;59.30;37.35;;;;;;;9.40;67.27;102576.63;4916625;28;121113;-77
2022/12/01 06:11:41;;;;;;;59.38;37.20;;;;;;;9.44;67.18;102587.56;4937979;28;122076;-78
2022/12/01 06:14:07;;;;;;;61.63;37.83;;;;;;;9.48;67.51;102583.66;4950842;28;119680;-78
2022/12/01 06:16:33;;;;;;;62.65;38.80;;;;;;;9.45;67.48;102575.44;4939085;28;119480;-79
2022/12/01 06:18:59;;;;;;;60.75;38.08;;;;;;;9.53;67.23;102583.25;4945815;28;120339;-77
2022/12/01 06:21:24;;;;;;;59.60;38.17;;;;;;;9.52;67.72;102584.44;4935720;28;119817;-79
2022/12/01 06:23:50;;;;;;;64.68;40.03;;;;;;;9.53;67.13;102587.94;4941300;28;119320;-78
2022/12/01 06:26:16;;;;;;;63.05;39.65;;;;;;;9.53;67.19;102591.47;4929715;28;119926;-78
2022/12/01 06:28:42;;;;;;;64.20;39.58;;;;;;;9.47;67.54;102589.53;4935484;28;119666;-77
2022/12/01 06:31:07;;;;;;;62.58;40.00;;;;;;;9.47;67.44;102592.28;4925298;28;121331;-78
2022/12/01 06:33:33;;;;;;;66.70;41.35;;;;;;;9.49;67.55;102592.66;4945315;28;119889;-78
2022/12/01 06:36:03;;;;;;;63.75;40.88;;;;;;;9.43;67.53;102588.75;4949112;28;121380;-78
2022/12/01 06:38:31;;;;;;;67.43;42.00;;;;;;;9.48;67.55;102599.31;4935203;28;119425;-78
2022/12/01 06:40:57;;;;;;;66.88;41.33;;;;;;;9.48;67.59;102604.81;4941315;28;121154;-78
2022/12/01 06:43:23;;;;;;;67.75;41.08;;;;;;;9.45;66.93;102600.09;4945298;28;119854;-77
2022/12/01 06:45:49;;;;;;;68.30;42.10;;;;;;;9.46;66.97;102607.13;4942724;28;119452;-78
2022/12/01 06:48:15;;;;;;;66.43;42.33;;;;;;;9.47;67.54;102603.25;4938581;28;119371;-78
2022/12/01 06:50:41;;;;;;;66.53;42.35;;;;;;;9.46;67.18;102601.66;4950612;28;120084;-78
2022/12/01 06:53:07;;;;;;;68.05;43.05;;;;;;;9.46;66.94;102601.66;4947026;28;119632;-77
2022/12/01 06:55:33;;;;;;;70.57;44.28;;;;;;;9.52;67.35;102613.78;4947707;28;119826;-78
2022/12/01 06:57:59;;;;;;;73.53;44.45;;;;;;;9.49;67.16;102614.59;4942180;28;119290;-78
2022/12/01 07:00:25;;;;;;;74.80;44.55;;;;;;;9.48;66.85;102608.31;4936313;28;119489;-77
2022/12/01 07:02:51;;;;;;;74.72;45.58;;;;;;;9.48;66.81;102619.28;4941585;28;120294;-77
2022/12/01 07:05:17;;;;;;;74.38;44.28;;;;;;;9.45;66.67;102620.03;4939526;28;119438;-78
2022/12/01 07:07:43;;;;;;;76.18;45.40;;;;;;;9.37;67.44;102612.25;4940939;28;121489;-77
2022/12/01 07:10:10;;;;;;;74.88;46.22;;;;;;;9.46;67.58;102618.91;4936925;28;120142;-77
2022/12/01 07:12:36;;;;;;;72.45;43.80;;;;;;;9.49;67.10;102622.81;4943109;28;119598;-77
2022/12/01 07:15:04;;;;;;;69.97;44.33;;;;;;;9.45;67.10;102624.75;4943498;28;120029;-77
2022/12/01 07:17:30;;;;;;;71.85;43.92;;;;;;;9.38;67.13;102600.91;4946914;28;119500;-78
2022/12/01 07:19:56;;;;;;;69.68;43.17;;;;;;;9.51;67.53;102623.97;4939221;28;119384;-77
2022/12/01 07:22:23;;;;;;;70.80;43.47;;;;;;;9.50;66.93;102621.63;4938601;28;119692;-78
2022/12/01 07:24:49;;;;;;;67.97;42.30;;;;;;;9.48;67.21;102626.72;4932441;28;119473;-78
2022/12/01 07:27:14;;;;;;;65.53;42.38;;;;;;;9.49;67.03;102626.31;4938029;28;119416;-77
2022/12/01 07:29:40;;;;;;;67.72;42.47;;;;;;;9.47;67.37;102623.19;4940188;28;119353;-77
2022/12/01 07:32:06;;;;;;;69.82;42.35;;;;;;;9.52;66.86;102632.97;4941820;28;120023;-78
2022/12/01 07:34:32;;;;;;;65.95;41.72;;;;;;;9.47;67.26;102630.63;4948911;28;119548;-77
2022/12/01 07:36:57;;;;;;;66.30;41.67;;;;;;;9.49;66.92;102633.75;4943342;28;119947;-77
2022/12/01 07:39:23;;;;;;;66.82;40.67;;;;;;;9.41;66.94;102629.47;4947711;28;119858;-78
2022/12/01 07:41:49;;;;;;;65.97;41.83;;;;;;;9.44;67.39;102634.13;4938651;28;119192;-78
2022/12/01 07:44:15;;;;;;;68.55;41.72;;;;;;;9.43;67.07;102638.06;4943392;28;119482;-77
2022/12/01 07:46:41;;;;;;;66.97;41.50;;;;;;;9.40;67.35;102642.38;4942860;28;119798;-78
2022/12/01 07:49:09;;;;;;;66.35;41.05;;;;;;;9.41;67.11;102646.66;4942033;28;122236;-77
2022/12/01 07:51:35;;;;;;;69.95;42.88;;;;;;;9.42;67.25;102636.50;4943716;28;119841;-78
2022/12/01 07:54:03;;;;;;;67.45;40.80;;;;;;;9.40;67.50;102633.38;4943140;28;119786;-78
2022/12/01 07:56:29;;;;;;;65.25;39.10;;;;;;;9.50;67.34;102649.81;4926937;28;122533;-79
2022/12/01 07:58:54;;;;;;;69.13;42.30;;;;;;;9.52;67.25;102644.72;4943217;28;119331;-77
2022/12/01 08:01:21;;;;;;;66.57;40.72;;;;;;;9.55;67.08;102640.41;4945145;28;120825;-77
2022/12/01 08:03:49;;;;;;;66.95;41.53;;;;;;;9.60;67.01;102659.16;4944964;28;119213;-78
2022/12/01 08:06:16;;;;;;;65.18;39.97;;;;;;;9.62;67.21;102650.53;4945851;28;119845;-77
2022/12/01 08:08:42;;;;;;;61.75;39.30;;;;;;;9.64;66.79;102646.22;4943164;28;120330;-78
2022/12/01 08:11:17;;;;;;;59.78;38.33;;;;;;;9.69;67.16;102645.81;4939709;28;119919;-78
2022/12/01 08:13:43;;;;;;;60.80;38.85;;;;;;;9.67;67.31;102639.16;4956577;28;119873;-77
2022/12/01 08:16:13;;;;;;;66.30;39.38;;;;;;;9.69;66.93;102643.06;4943555;28;120077;-78
2022/12/01 08:18:41;;;;;;;64.03;41.33;;;;;;;9.71;66.96;102648.19;4934958;28;120212;-78
2022/12/01 08:21:09;;;;;;;63.60;39.88;;;;;;;9.67;67.48;102650.13;4946825;28;119612;-79
2022/12/01 08:23:34;;;;;;;61.47;38.67;;;;;;;9.72;66.97;102650.53;4951608;28;119577;-78
2022/12/01 08:26:02;;;;;;;64.03;38.70;;;;;;;9.77;67.04;102658.34;4942890;28;119662;-78
2022/12/01 08:28:28;;;;;;;58.40;37.80;;;;;;;9.80;66.78;102664.97;4942812;28;122291;-78
2022/12/01 08:30:54;;;;;;;63.00;38.22;;;;;;;9.84;67.18;102672.00;4939336;28;119271;-78
2022/12/01 08:33:19;;;;;;;61.63;39.08;;;;;;;9.83;67.13;102673.19;4942702;28;119846;-78
2022/12/01 08:35:45;;;;;;;60.50;38.45;;;;;;;9.79;66.51;102666.94;4945166;28;119806;-77
2022/12/01 08:38:11;;;;;;;60.90;37.42;;;;;;;9.78;66.72;102668.13;4944851;28;119959;-79
2022/12/01 08:40:37;;;;;;;60.88;38.65;;;;;;;9.77;66.94;102668.53;4944213;28;119470;-77
2022/12/01 08:43:03;;;;;;;62.45;37.55;;;;;;;9.75;66.67;102671.66;4949129;28;119443;-78
2022/12/01 08:45:29;;;;;;;58.45;36.75;;;;;;;9.69;66.65;102672.44;4945602;28;119345;-77
2022/12/01 08:47:57;;;;;;;61.08;38.45;;;;;;;9.62;66.66;102667.75;4943271;28;119351;-78
2022/12/01 08:50:26;;;;;;;62.25;37.75;;;;;;;9.62;66.76;102673.25;4942532;28;120185;-77
2022/12/01 08:52:53;;;;;;;58.80;37.67;;;;;;;9.58;67.02;102677.19;4945652;28;120161;-78
2022/12/01 08:55:20;;;;;;;63.80;38.35;;;;;;;9.56;67.07;102677.56;4938879;28;119737;-78
2022/12/01 08:57:46;;;;;;;60.33;38.33;;;;;;;9.52;67.12;102671.31;4945330;28;119482;-78
2022/12/01 09:00:12;;;;;;;61.60;37.42;;;;;;;9.53;67.53;102670.16;4937161;28;120469;-78
2022/12/01 09:02:38;;;;;;;65.68;38.42;;;;;;;9.61;67.35;102682.66;4946054;28;120381;-79
2022/12/01 09:05:04;;;;;;;60.22;37.60;;;;;;;9.60;67.46;102681.09;4931180;28;119476;-78
2022/12/01 09:07:32;;;;;;;62.47;38.72;;;;;;;9.67;67.49;102686.53;4941505;28;120018;-77
2022/12/01 09:09:57;;;;;;;64.20;38.63;;;;;;;9.57;67.28;102664.66;4945569;28;119520;-79
2022/12/01 09:12:23;;;;;;;61.38;37.75;;;;;;;9.66;66.90;102684.97;4942794;28;119372;-78
2022/12/01 09:14:49;;;;;;;59.17;38.10;;;;;;;9.65;67.54;102682.63;4941224;28;119879;-78
2022/12/01 09:17:16;;;;;;;62.78;38.08;;;;;;;9.69;67.41;102684.19;4943525;28;119779;-78
2022/12/01 09:19:42;;;;;;;61.20;37.15;;;;;;;9.73;67.51;102684.97;4943953;28;120327;-78
2022/12/01 09:22:09;;;;;;;58.38;38.10;;;;;;;9.70;67.40;102672.06;4944508;28;119374;-78
2022/12/01 09:24:35;;;;;;;63.53;38.03;;;;;;;9.72;67.93;102674.41;4944742;28;119794;-78
2022/12/01 09:27:02;;;;;;;61.35;37.45;;;;;;;9.71;67.53;102659.94;4945255;28;119858;-77
2022/12/01 09:29:28;;;;;;;59.10;37.47;;;;;;;9.84;67.63;102680.22;4923338;28;119700;-78
2022/12/01 09:31:56;;;;;;;58.97;37.33;;;;;;;9.89;67.76;102681.00;4944033;28;120947;-78
2022/12/01 09:34:22;;;;;;;64.25;38.95;;;;;;;9.94;68.17;102666.91;4942695;28;120034;-77
2022/12/01 09:36:48;;;;;;;60.80;37.95;;;;;;;10.03;67.59;102670.78;4930184;28;119536;-78
2022/12/01 09:39:16;;;;;;;60.22;38.13;;;;;;;10.00;67.49;102654.34;4943665;28;119474;-77
2022/12/01 09:41:45;;;;;;;52.67;35.58;;;;;;;10.08;67.67;102672.31;4942062;28;120391;-78
2022/12/01 09:44:26;;;;;;;60.45;37.50;;;;;;;10.13;67.19;102667.19;4941349;28;119624;-78
2022/12/01 09:46:59;;;;;;;56.78;36.45;;;;;;;10.17;67.50;102667.16;4944870;28;119592;-77
2022/12/01 09:49:48;;;;;;;59.20;36.88;;;;;;;10.22;66.90;102672.28;4948490;28;119824;-78
2022/12/01 09:52:16;;;;;;;55.53;36.88;;;;;;;10.21;66.92;102669.94;4938262;28;119837;-78
2022/12/01 09:54:42;;;;;;;58.80;37.58;;;;;;;10.18;66.80;102666.03;4941608;28;119839;-77
2022/12/01 09:57:36;;;;;;;59.47;37.17;;;;;;;10.26;66.69;102677.75;4942056;28;119346;-78
2022/12/01 10:00:10;;;;;;;57.83;36.00;;;;;;;10.23;66.59;102673.84;4942298;28;119836;-78
2022/12/01 10:02:57;;;;;;;56.67;35.92;;;;;;;10.29;66.73;102677.72;4942884;28;119301;-78
2022/12/01 10:05:28;;;;;;;58.50;37.22;;;;;;;10.28;66.33;102669.91;4934981;28;119475;-78
2022/12/01 10:08:02;;;;;;;55.08;36.38;;;;;;;10.29;66.55;102672.25;4939269;28;119822;-78
2022/12/01 10:10:50;;;;;;;55.30;35.00;;;;;;;10.27;66.74;102674.63;4937369;28;119742;-76
2022/12/01 10:13:24;;;;;;;57.72;37.80;;;;;;;10.30;66.62;102676.56;4941762;28;119670;-77
2022/12/01 10:16:04;;;;;;;55.08;36.83;;;;;;;10.26;66.41;102672.28;4943574;28;119792;-77
2022/12/01 10:19:08;;;;;;;56.80;36.67;;;;;;;10.26;66.09;102670.31;4917205;28;119768;-79
2022/12/01 10:22:04;;;;;;;60.38;38.50;;;;;;;10.13;65.87;102658.97;4942770;28;120656;-77
2022/12/01 10:25:18;;;;;;;57.20;37.47;;;;;;;10.05;66.21;102642.94;4937409;28;120268;-77
2022/12/01 10:28:01;;;;;;;60.80;37.30;;;;;;;10.20;66.74;102668.34;4926877;28;119990;-77
2022/12/01 10:30:27;;;;;;;61.78;38.55;;;;;;;10.19;66.97;102662.09;4931241;28;120965;-78
2022/12/01 10:33:09;;;;;;;58.85;37.90;;;;;;;10.25;66.70;102657.78;4936402;28;120764;-78
2022/12/01 10:35:39;;;;;;;61.13;38.88;;;;;;;10.29;66.75;102666.75;4943333;28;119725;-77
2022/12/01 10:38:23;;;;;;;61.28;39.55;;;;;;;10.29;66.36;102658.53;4946279;28;120072;-77
2022/12/01 10:40:50;;;;;;;61.83;38.55;;;;;;;10.28;66.35;102665.19;4943143;28;119395;-78
2022/12/01 10:43:16;;;;;;;62.10;38.95;;;;;;;10.29;66.34;102661.28;4937577;28;119451;-77
2022/12/01 10:45:43;;;;;;;62.92;39.25;;;;;;;10.29;66.03;102661.28;4943119;28;119755;-77
2022/12/01 10:48:14;;;;;;;63.20;39.63;;;;;;;10.21;66.30;102651.53;4942456;28;119554;-78
2022/12/01 10:50:46;;;;;;;62.75;39.42;;;;;;;10.22;66.28;102660.53;4942065;28;119426;-77
2022/12/01 10:53:32;;;;;;;60.65;38.42;;;;;;;10.25;66.57;102659.75;4941888;28;119772;-78
2022/12/01 10:56:07;;;;;;;61.08;39.38;;;;;;;10.26;66.53;102655.81;4943470;28;119898;-77
2022/12/01 10:58:50;;;;;;;65.35;40.47;;;;;;;10.23;66.48;102654.66;4944234;28;119378;-77
2022/12/01 11:01:23;;;;;;;63.45;39.22;;;;;;;10.25;66.41;102652.28;4942062;28;120391;-78
2022/12/01 11:03:56;;;;;;;63.00;40.40;;;;;;;10.29;66.52;102660.50;4942198;28;119414;-77
2022/12/01 11:06:28;;;;;;;64.17;39.20;;;;;;;10.27;66.08;102655.41;4934125;28;119910;-76
2022/12/01 11:09:00;;;;;;;62.15;38.20;;;;;;;10.29;65.74;102655.78;4938704;28;119326;-76
2022/12/01 11:11:25;;;;;;;66.80;41.83;;;;;;;10.25;66.22;102663.25;4940744;28;120239;-76
2022/12/01 11:13:52;;;;;;;61.28;39.53;;;;;;;10.20;65.85;102660.91;4940503;28;119444;-77
2022/12/01 11:16:34;;;;;;;70.70;39.58;;;;;;;10.16;65.90;102654.63;4941660;28;119541;-77
2022/12/01 11:19:17;;;;;;;67.30;41.47;;;;;;;10.11;65.69;102650.34;4941779;28;121373;-77
2022/12/01 11:21:52;;;;;;;64.22;40.15;;;;;;;10.11;66.05;102655.06;4946501;28;119754;-76
2022/12/01 11:24:43;;;;;;;64.85;40.88;;;;;;;10.07;66.01;102644.13;4943983;28;120667;-76
2022/12/01 11:27:18;;;;;;;69.72;40.30;;;;;;;10.05;66.29;102641.00;4942864;28;119840;-77
2022/12/01 11:29:50;;;;;;;63.55;39.90;;;;;;;10.05;66.09;102635.50;4937907;28;119900;-78